Time;durP1;ratioP1;P1;durP2;ratioP2;P2;SDS_P1;SDS_P2;PMS_P1;PMS_P2;Temp;Humidity;BMP_temperature;BMP_pressure;BME280_temperature;BME280_humidity;BME280_pressure;Samples;Min_cycle;Max_cycle;Signal;HPM_P1;HPM_P2
2023/04/07 00:01:22;;;;;;;;;;;8.70;99.90;;;;;;5139034;28;19908;-61
2023/04/07 00:03:48;;;;;;;;;;;8.70;99.90;;;;;;5138808;28;19938;-61
2023/04/07 00:06:13;;;;;;;;;;;8.70;99.90;;;;;;5138718;28;19986;-61
2023/04/07 00:08:39;;;;;;;;;;;8.60;99.90;;;;;;5138917;28;19912;-61
2023/04/07 00:11:05;;;;;;;;;;;8.60;99.90;;;;;;5138919;28;19916;-61
2023/04/07 00:13:30;;;;;;;;;;;8.60;99.90;;;;;;5138496;28;19907;-61
2023/04/07 00:15:56;;;;;;;;;;;8.60;99.90;;;;;;5138921;28;19930;-61
2023/04/07 00:18:21;;;;;;;;;;;8.50;99.90;;;;;;5138851;28;20293;-61
2023/04/07 00:20:47;;;;;;;;;;;8.50;99.90;;;;;;5138874;28;19915;-61
2023/04/07 00:23:12;;;;;;;;;;;8.50;99.90;;;;;;5138659;28;19914;-61
2023/04/07 00:25:38;;;;;;;;;;;8.50;99.90;;;;;;5120297;28;20398;-61
2023/04/07 00:28:04;;;;;;;;;;;8.50;99.90;;;;;;5138299;28;20006;-61
2023/04/07 00:30:30;;;;;;;;;;;8.40;99.90;;;;;;5139319;27;19911;-61
2023/04/07 00:32:55;;;;;;;;;;;8.50;99.90;;;;;;5142227;27;19918;-61
2023/04/07 00:35:21;;;;;;;;;;;8.40;99.90;;;;;;5141980;27;19911;-61
2023/04/07 00:37:46;;;;;;;;;;;8.40;99.90;;;;;;5142527;27;19907;-61
2023/04/07 00:40:12;;;;;;;;;;;8.40;99.90;;;;;;5142324;27;19915;-61
2023/04/07 00:42:38;;;;;;;;;;;8.30;99.90;;;;;;5142309;27;19907;-61
2023/04/07 00:45:03;;;;;;;;;;;8.40;99.90;;;;;;5142185;27;19908;-61
2023/04/07 00:47:29;;;;;;;;;;;8.30;99.90;;;;;;5141920;27;20289;-61
2023/04/07 00:49:55;;;;;;;;;;;8.30;99.90;;;;;;5142084;27;19951;-60
2023/04/07 00:52:27;;;;;;;;;;;8.10;99.90;;;;;;5142153;27;19929;-61
2023/04/07 00:54:54;;;;;;;;;;;8.30;99.90;;;;;;5141855;27;19909;-61
2023/04/07 00:57:20;;;;;;;;;;;8.20;99.90;;;;;;5142303;27;19907;-61
2023/04/07 00:59:45;;;;;;;;;;;8.20;99.90;;;;;;5141735;27;20384;-61
2023/04/07 01:02:11;;;;;;;;;;;8.20;99.90;;;;;;5142177;27;20363;-61
2023/04/07 01:04:48;;;;;;;;;;;8.20;99.90;;;;;;5141605;27;19994;-61
2023/04/07 01:07:16;;;;;;;;;;;8.10;99.90;;;;;;5141419;27;19911;-61
2023/04/07 01:09:47;;;;;;;;;;;8.10;99.90;;;;;;5141516;27;19907;-61
2023/04/07 01:12:12;;;;;;;;;;;8.10;99.90;;;;;;5141664;27;19907;-61
2023/04/07 01:14:40;;;;;;;;;;;8.20;99.90;;;;;;5141689;27;19914;-61
2023/04/07 01:17:06;;;;;;;;;;;8.10;99.90;;;;;;5141324;27;20007;-61
2023/04/07 01:20:02;;;;;;;;;;;8.10;99.90;;;;;;5141614;27;19929;-61
2023/04/07 01:22:32;;;;;;;;;;;8.00;99.90;;;;;;5124016;27;20267;-61
2023/04/07 01:24:58;;;;;;;;;;;8.00;99.90;;;;;;5141276;27;19986;-61
2023/04/07 01:27:27;;;;;;;;;;;8.00;99.90;;;;;;5141002;27;20413;-61
2023/04/07 01:29:53;;;;;;;;;;;7.80;99.90;;;;;;5141316;27;19914;-61
2023/04/07 01:32:21;;;;;;;;;;;7.80;99.90;;;;;;5141142;27;19908;-61
2023/04/07 01:34:48;;;;;;;;;;;7.80;99.90;;;;;;5141230;27;19915;-61
2023/04/07 01:37:14;;;;;;;;;;;7.80;99.90;;;;;;5141052;27;19914;-61
2023/04/07 01:39:40;;;;;;;;;;;7.70;99.90;;;;;;5141134;27;20603;-61
2023/04/07 01:42:06;;;;;;;;;;;7.60;99.90;;;;;;5140894;27;19915;-61
2023/04/07 01:44:32;;;;;;;;;;;7.60;99.90;;;;;;5140176;27;19907;-61
2023/04/07 01:46:58;;;;;;;;;;;7.60;99.90;;;;;;5141056;27;19918;-61
2023/04/07 01:49:25;;;;;;;;;;;7.60;99.90;;;;;;5140789;27;19907;-61
2023/04/07 01:51:50;;;;;;;;;;;7.60;99.90;;;;;;5140502;27;19950;-61
2023/04/07 01:54:17;;;;;;;;;;;7.60;99.90;;;;;;5140675;27;19907;-61
2023/04/07 01:56:43;;;;;;;;;;;7.60;99.90;;;;;;5122022;27;19994;-61
2023/04/07 01:59:09;;;;;;;;;;;7.60;99.90;;;;;;5140767;27;19947;-61
2023/04/07 02:01:35;;;;;;;;;;;7.60;99.90;;;;;;5140560;27;19918;-61
2023/04/07 02:04:06;;;;;;;;;;;7.70;99.90;;;;;;5140452;27;20456;-61
2023/04/07 02:06:34;;;;;;;;;;;7.60;99.90;;;;;;5140587;27;19908;-61
2023/04/07 02:09:03;;;;;;;;;;;7.50;99.90;;;;;;5140518;27;19961;-61
2023/04/07 02:11:31;;;;;;;;;;;7.60;99.90;;;;;;5140316;27;19994;-61
2023/04/07 02:13:58;;;;;;;;;;;7.60;99.90;;;;;;5140248;27;19915;-61
2023/04/07 02:16:24;;;;;;;;;;;7.50;99.90;;;;;;5140404;27;19912;-61
2023/04/07 02:18:50;;;;;;;;;;;7.40;99.90;;;;;;5140079;27;20377;-61
2023/04/07 02:21:17;;;;;;;;;;;7.40;99.90;;;;;;5140622;27;19912;-61
2023/04/07 02:23:42;;;;;;;;;;;7.40;99.90;;;;;;5140262;27;19912;-61
2023/04/07 02:26:08;;;;;;;;;;;7.20;99.90;;;;;;5139866;27;19916;-61
2023/04/07 02:28:34;;;;;;;;;;;7.40;99.90;;;;;;5140314;27;19978;-61
2023/04/07 02:30:59;;;;;;;;;;;7.30;99.90;;;;;;5140094;27;19934;-61
2023/04/07 02:33:25;;;;;;;;;;;7.30;99.90;;;;;;5140127;27;19918;-61
2023/04/07 02:35:51;;;;;;;;;;;7.30;99.90;;;;;;5139895;27;19907;-61
2023/04/07 02:38:16;;;;;;;;;;;7.20;99.90;;;;;;5139805;27;20259;-61
2023/04/07 02:40:42;;;;;;;;;;;7.20;99.90;;;;;;5139982;27;19907;-61
2023/04/07 02:43:07;;;;;;;;;;;7.20;99.90;;;;;;5139763;27;19912;-61
2023/04/07 02:45:33;;;;;;;;;;;7.20;99.90;;;;;;5139607;27;19915;-61
2023/04/07 02:47:59;;;;;;;;;;;7.10;99.90;;;;;;5139832;27;19911;-61
2023/04/07 02:50:25;;;;;;;;;;;7.10;99.90;;;;;;5139847;27;20423;-61
2023/04/07 02:52:50;;;;;;;;;;;7.10;99.90;;;;;;5139380;27;19914;-60
2023/04/07 02:55:17;;;;;;;;;;;7.10;99.90;;;;;;5139701;27;19907;-61
2023/04/07 02:57:42;;;;;;;;;;;7.00;99.90;;;;;;5139249;27;19907;-61
2023/04/07 03:00:09;;;;;;;;;;;7.00;99.90;;;;;;5139651;27;19936;-61
2023/04/07 03:02:34;;;;;;;;;;;7.00;99.90;;;;;;5139385;27;19929;-61
2023/04/07 03:05:01;;;;;;;;;;;6.90;99.90;;;;;;5139392;27;20319;-61
2023/04/07 03:07:26;;;;;;;;;;;6.90;99.90;;;;;;5139371;27;19912;-61
2023/04/07 03:09:52;;;;;;;;;;;6.80;99.90;;;;;;5139785;27;20259;-61
2023/04/07 03:12:17;;;;;;;;;;;6.80;99.90;;;;;;5139331;27;19930;-61
2023/04/07 03:14:43;;;;;;;;;;;6.80;99.90;;;;;;5139544;27;19907;-61
2023/04/07 03:17:09;;;;;;;;;;;6.80;99.90;;;;;;5139236;27;19937;-61
2023/04/07 03:19:34;;;;;;;;;;;6.70;99.90;;;;;;5139400;28;19971;-61
2023/04/07 03:22:00;;;;;;;;;;;6.70;99.90;;;;;;5139123;28;19912;-61
2023/04/07 03:24:26;;;;;;;;;;;6.80;99.90;;;;;;5139359;28;19908;-61
2023/04/07 03:26:51;;;;;;;;;;;6.60;99.90;;;;;;5139184;28;20374;-61
2023/04/07 03:29:17;;;;;;;;;;;6.70;99.90;;;;;;5139605;28;20358;-61
2023/04/07 03:31:43;;;;;;;;;;;6.60;99.90;;;;;;5138919;28;20362;-61
2023/04/07 03:34:08;;;;;;;;;;;6.70;99.90;;;;;;5139579;28;19908;-61
2023/04/07 03:36:34;;;;;;;;;;;6.50;99.90;;;;;;5139249;28;19922;-61
2023/04/07 03:39:00;;;;;;;;;;;6.50;99.90;;;;;;5139662;28;19908;-61
2023/04/07 03:41:25;;;;;;;;;;;6.50;99.90;;;;;;5139222;28;19917;-61
2023/04/07 03:43:51;;;;;;;;;;;6.50;99.90;;;;;;5139002;28;19914;-60
2023/04/07 03:46:18;;;;;;;;;;;6.50;99.90;;;;;;5139153;28;19908;-61
2023/04/07 03:48:43;;;;;;;;;;;6.50;99.90;;;;;;5139361;28;20002;-61
2023/04/07 03:51:09;;;;;;;;;;;6.40;99.90;;;;;;5139122;28;19953;-61
2023/04/07 03:53:35;;;;;;;;;;;6.50;99.90;;;;;;5138975;28;19914;-61
2023/04/07 03:56:00;;;;;;;;;;;6.50;99.90;;;;;;5139105;28;20374;-61
2023/04/07 03:58:26;;;;;;;;;;;6.50;99.90;;;;;;5138654;28;19960;-61
2023/04/07 04:00:51;;;;;;;;;;;6.50;99.90;;;;;;5139041;28;19907;-60
2023/04/07 04:03:17;;;;;;;;;;;6.60;99.90;;;;;;5139299;28;19929;-61
2023/04/07 04:05:43;;;;;;;;;;;6.40;99.90;;;;;;5139059;27;19914;-60
2023/04/07 04:08:08;;;;;;;;;;;6.50;99.90;;;;;;5142668;27;19912;-61
2023/04/07 04:10:34;;;;;;;;;;;6.60;99.90;;;;;;5142716;27;20480;-61
2023/04/07 04:13:00;;;;;;;;;;;6.40;99.90;;;;;;5142631;27;19907;-61
2023/04/07 04:15:25;;;;;;;;;;;6.40;99.90;;;;;;5142572;27;19943;-61
2023/04/07 04:17:51;;;;;;;;;;;6.30;99.90;;;;;;5142471;27;19994;-61
2023/04/07 04:20:17;;;;;;;;;;;6.30;99.90;;;;;;5142293;27;19915;-61
2023/04/07 04:22:42;;;;;;;;;;;6.30;99.90;;;;;;5142166;27;19967;-61
2023/04/07 04:25:08;;;;;;;;;;;6.30;99.90;;;;;;5142149;27;19912;-61
2023/04/07 04:27:34;;;;;;;;;;;6.20;99.90;;;;;;5141910;27;19942;-61
2023/04/07 04:29:59;;;;;;;;;;;6.20;99.90;;;;;;5141939;27;19915;-61
2023/04/07 04:32:25;;;;;;;;;;;6.20;99.90;;;;;;5142054;27;19954;-61
2023/04/07 04:34:51;;;;;;;;;;;6.20;99.90;;;;;;5141556;27;19908;-61
2023/04/07 04:37:16;;;;;;;;;;;6.20;99.90;;;;;;5142177;27;19907;-60
2023/04/07 04:39:42;;;;;;;;;;;6.10;99.90;;;;;;5142025;27;19952;-61
2023/04/07 04:42:08;;;;;;;;;;;6.10;99.90;;;;;;5141856;27;19907;-61
2023/04/07 04:44:33;;;;;;;;;;;6.10;99.90;;;;;;5141657;27;20430;-61
2023/04/07 04:46:59;;;;;;;;;;;6.10;99.90;;;;;;5142022;27;19918;-61
2023/04/07 04:49:25;;;;;;;;;;;6.20;99.90;;;;;;5141823;27;19990;-61
2023/04/07 04:51:50;;;;;;;;;;;6.20;99.90;;;;;;5141476;27;19974;-61
2023/04/07 04:54:17;;;;;;;;;;;6.20;99.90;;;;;;5141785;27;19982;-61
2023/04/07 04:56:43;;;;;;;;;;;6.20;99.90;;;;;;5141449;27;20445;-61
2023/04/07 04:59:08;;;;;;;;;;;6.10;99.90;;;;;;5141327;27;19911;-61
2023/04/07 05:01:34;;;;;;;;;;;6.10;99.90;;;;;;5141689;27;19972;-61
2023/04/07 05:04:00;;;;;;;;;;;6.10;99.90;;;;;;5141450;27;20328;-61
2023/04/07 05:06:26;;;;;;;;;;;6.10;99.90;;;;;;5140416;27;20270;-61
2023/04/07 05:08:52;;;;;;;;;;;6.10;99.90;;;;;;5141197;27;19912;-61
2023/04/07 05:11:18;;;;;;;;;;;6.10;99.90;;;;;;5141116;27;19928;-61
2023/04/07 05:13:43;;;;;;;;;;;6.00;99.90;;;;;;5141092;27;19907;-61
2023/04/07 05:16:09;;;;;;;;;;;6.00;99.90;;;;;;5141084;27;19982;-61
2023/04/07 05:18:35;;;;;;;;;;;6.00;99.90;;;;;;5141162;27;19986;-61
2023/04/07 05:21:01;;;;;;;;;;;5.90;99.90;;;;;;5140939;27;19911;-61
2023/04/07 05:23:26;;;;;;;;;;;5.90;99.90;;;;;;5141115;27;19907;-61
2023/04/07 05:25:52;;;;;;;;;;;6.10;99.90;;;;;;5140925;27;20914;-61
2023/04/07 05:28:18;;;;;;;;;;;5.90;99.90;;;;;;5140449;27;19927;-61
2023/04/07 05:30:44;;;;;;;;;;;6.00;99.90;;;;;;5140748;27;19915;-61
2023/04/07 05:33:10;;;;;;;;;;;5.90;99.90;;;;;;5140783;27;19915;-61
2023/04/07 05:35:35;;;;;;;;;;;5.90;99.90;;;;;;5140587;27;19907;-60
2023/04/07 05:38:01;;;;;;;;;;;6.00;99.90;;;;;;5140921;27;19975;-61
2023/04/07 05:40:27;;;;;;;;;;;6.00;99.90;;;;;;5140598;27;19907;-60
2023/04/07 05:42:53;;;;;;;;;;;6.00;99.90;;;;;;5140463;27;20278;-61
2023/04/07 05:45:18;;;;;;;;;;;5.90;99.90;;;;;;5140629;27;19907;-61
2023/04/07 05:47:48;;;;;;;;;;;6.00;99.90;;;;;;5140343;27;19960;-61
2023/04/07 05:50:14;;;;;;;;;;;5.90;99.90;;;;;;5140613;27;19915;-61
2023/04/07 05:52:40;;;;;;;;;;;6.00;99.90;;;;;;5140809;27;20385;-61
2023/04/07 05:55:06;;;;;;;;;;;5.90;99.90;;;;;;5140506;27;19911;-60
2023/04/07 05:57:32;;;;;;;;;;;5.90;99.90;;;;;;5140039;27;19998;-61
2023/04/07 05:59:57;;;;;;;;;;;5.90;99.90;;;;;;5140649;27;19918;-61
2023/04/07 06:02:23;;;;;;;;;;;5.90;99.90;;;;;;5140156;27;19908;-61
2023/04/07 06:04:48;;;;;;;;;;;5.90;99.90;;;;;;5140316;27;19951;-61
2023/04/07 06:07:14;;;;;;;;;;;6.00;99.90;;;;;;5139988;27;19915;-61
2023/04/07 06:09:41;;;;;;;;;;;6.00;99.90;;;;;;5140314;27;19915;-61
2023/04/07 06:12:08;;;;;;;;;;;6.00;99.90;;;;;;5139870;27;19907;-61
2023/04/07 06:14:33;;;;;;;;;;;6.00;99.90;;;;;;5140101;27;19907;-62
2023/04/07 06:17:00;;;;;;;;;;;6.10;99.90;;;;;;5139824;27;19913;-61
2023/04/07 06:19:26;;;;;;;;;;;6.10;99.90;;;;;;5139657;27;19955;-61
2023/04/07 06:21:52;;;;;;;;;;;6.10;99.90;;;;;;5139996;27;19942;-61
2023/04/07 06:24:17;;;;;;;;;;;6.20;99.90;;;;;;5139909;27;19908;-61
2023/04/07 06:26:43;;;;;;;;;;;6.20;99.90;;;;;;5139625;27;19919;-61
2023/04/07 06:29:09;;;;;;;;;;;6.20;99.90;;;;;;5139194;27;19908;-61
2023/04/07 06:31:35;;;;;;;;;;;6.30;99.90;;;;;;5139578;27;19908;-61
2023/04/07 06:34:00;;;;;;;;;;;6.30;99.90;;;;;;5139651;27;19912;-61
2023/04/07 06:36:26;;;;;;;;;;;6.40;99.90;;;;;;5139407;27;19907;-61
2023/04/07 06:38:52;;;;;;;;;;;6.50;99.90;;;;;;5139484;27;19908;-61
2023/04/07 06:41:17;;;;;;;;;;;6.50;99.90;;;;;;5139405;27;19908;-61
2023/04/07 06:43:46;;;;;;;;;;;6.70;99.90;;;;;;5139457;27;20418;-61
2023/04/07 06:46:12;;;;;;;;;;;6.70;99.90;;;;;;5139123;27;20267;-61
2023/04/07 06:48:37;;;;;;;;;;;6.80;99.90;;;;;;5120743;27;20015;-61
2023/04/07 06:51:03;;;;;;;;;;;6.80;99.90;;;;;;5139505;27;19907;-61
2023/04/07 06:53:29;;;;;;;;;;;7.00;99.90;;;;;;5139191;27;19914;-61
2023/04/07 06:56:10;;;;;;;;;;;7.10;99.90;;;;;;5139165;27;20427;-61
2023/04/07 06:58:36;;;;;;;;;;;7.10;99.90;;;;;;5139144;27;19908;-61
2023/04/07 07:01:02;;;;;;;;;;;7.20;99.90;;;;;;5139041;27;20374;-62
2023/04/07 07:03:28;;;;;;;;;;;7.20;99.90;;;;;;5138838;27;20342;-61
2023/04/07 07:05:55;;;;;;;;;;;7.30;99.90;;;;;;5138999;27;19914;-61
2023/04/07 07:08:21;;;;;;;;;;;7.40;99.90;;;;;;5138558;27;19917;-61
2023/04/07 07:10:47;;;;;;;;;;;7.50;99.90;;;;;;5139026;27;19908;-61
2023/04/07 07:13:13;;;;;;;;;;;7.50;99.90;;;;;;5139135;27;19914;-61
2023/04/07 07:15:38;;;;;;;;;;;7.60;99.90;;;;;;5139229;27;19943;-61
2023/04/07 07:18:04;;;;;;;;;;;7.60;99.90;;;;;;5138991;27;19907;-61
2023/04/07 07:20:30;;;;;;;;;;;7.80;99.90;;;;;;5138957;28;19951;-61
2023/04/07 07:22:55;;;;;;;;;;;7.80;99.90;;;;;;5139002;28;19912;-61
2023/04/07 07:25:21;;;;;;;;;;;7.90;99.90;;;;;;5138693;28;19929;-61
2023/04/07 07:27:52;;;;;;;;;;;8.10;99.90;;;;;;5138412;28;19920;-61
2023/04/07 07:30:20;;;;;;;;;;;8.00;99.90;;;;;;5138432;28;19907;-61
2023/04/07 07:32:46;;;;;;;;;;;8.20;99.90;;;;;;5138762;28;20308;-61
2023/04/07 07:35:12;;;;;;;;;;;8.20;99.90;;;;;;5138648;28;19907;-61
2023/04/07 07:37:37;;;;;;;;;;;8.40;99.90;;;;;;5138311;28;19908;-61
2023/04/07 07:40:03;;;;;;;;;;;8.40;99.90;;;;;;5139479;27;19907;-61
2023/04/07 07:42:30;;;;;;;;;;;8.50;99.90;;;;;;5142873;27;19907;-61
2023/04/07 07:44:55;;;;;;;;;;;8.60;99.90;;;;;;5142643;27;20421;-61
2023/04/07 07:47:21;;;;;;;;;;;8.80;99.90;;;;;;5142852;27;19911;-61
2023/04/07 07:49:47;;;;;;;;;;;8.80;99.90;;;;;;5142681;27;20312;-61
2023/04/07 07:52:13;;;;;;;;;;;9.10;99.90;;;;;;5143099;27;19908;-61
2023/04/07 07:54:38;;;;;;;;;;;9.00;99.90;;;;;;5142551;27;20322;-61
2023/04/07 07:57:04;;;;;;;;;;;9.10;99.90;;;;;;5142969;27;19907;-62
2023/04/07 07:59:30;;;;;;;;;;;9.20;99.90;;;;;;5142442;27;19985;-61
2023/04/07 08:01:56;;;;;;;;;;;9.30;99.90;;;;;;5142225;27;20370;-61
2023/04/07 08:04:22;;;;;;;;;;;9.30;99.90;;;;;;5142377;27;19930;-61
2023/04/07 08:06:49;;;;;;;;;;;9.40;99.90;;;;;;5141990;27;20243;-61
2023/04/07 08:09:15;;;;;;;;;;;9.50;99.90;;;;;;5142438;27;19960;-61
2023/04/07 08:11:41;;;;;;;;;;;9.60;99.90;;;;;;5142517;27;19933;-61
2023/04/07 08:14:06;;;;;;;;;;;9.60;99.90;;;;;;5142219;27;19956;-61
2023/04/07 08:16:32;;;;;;;;;;;9.70;99.90;;;;;;5142032;27;19907;-61
2023/04/07 08:18:58;;;;;;;;;;;9.80;99.90;;;;;;5142422;27;19908;-61
2023/04/07 08:21:23;;;;;;;;;;;9.90;99.90;;;;;;5142376;27;20393;-61
2023/04/07 08:23:49;;;;;;;;;;;10.00;99.90;;;;;;5142377;27;20286;-61
2023/04/07 08:26:14;;;;;;;;;;;10.00;99.90;;;;;;5142054;27;19915;-61
2023/04/07 08:28:40;;;;;;;;;;;10.10;99.90;;;;;;5141852;27;19912;-62
2023/04/07 08:31:06;;;;;;;;;;;10.20;99.90;;;;;;5142232;27;19918;-61
2023/04/07 08:33:32;;;;;;;;;;;10.40;99.90;;;;;;5142123;27;19995;-62
2023/04/07 08:35:57;;;;;;;;;;;10.40;99.90;;;;;;5142076;27;19914;-61
2023/04/07 08:38:23;;;;;;;;;;;10.50;99.90;;;;;;5142003;27;19915;-62
2023/04/07 08:40:52;;;;;;;;;;;10.70;99.90;;;;;;5142272;27;19947;-62
2023/04/07 08:43:19;;;;;;;;;;;10.80;99.90;;;;;;5141940;27;19907;-62
2023/04/07 08:45:45;;;;;;;;;;;10.90;99.90;;;;;;5141735;27;19915;-61
2023/04/07 08:48:16;;;;;;;;;;;11.00;99.90;;;;;;5141446;27;19911;-61
2023/04/07 08:50:45;;;;;;;;;;;11.20;99.90;;;;;;5141856;27;20299;-61
2023/04/07 08:53:12;;;;;;;;;;;11.30;99.90;;;;;;5140716;27;19958;-61
2023/04/07 08:55:37;;;;;;;;;;;11.50;99.90;;;;;;5141613;27;19907;-61
2023/04/07 08:58:03;;;;;;;;;;;11.60;99.90;;;;;;5141532;27;20002;-62
2023/04/07 09:00:30;;;;;;;;;;;11.70;99.90;;;;;;5141375;27;19922;-61
2023/04/07 09:02:56;;;;;;;;;;;11.90;99.90;;;;;;5141562;27;19946;-61
2023/04/07 09:05:23;;;;;;;;;;;12.00;99.90;;;;;;5141634;27;19907;-62
2023/04/07 09:07:49;;;;;;;;;;;12.30;99.90;;;;;;5141165;27;19912;-61
2023/04/07 09:10:15;;;;;;;;;;;12.40;99.90;;;;;;5141407;27;19915;-62
2023/04/07 09:12:41;;;;;;;;;;;12.60;99.90;;;;;;5141641;27;19963;-62
2023/04/07 09:15:07;;;;;;;;;;;12.80;99.90;;;;;;5141631;27;19911;-62
2023/04/07 09:17:32;;;;;;;;;;;13.10;99.90;;;;;;5140887;27;19907;-62
2023/04/07 09:19:58;;;;;;;;;;;13.20;99.90;;;;;;5140782;27;19907;-62
2023/04/07 09:22:34;;;;;;;;;;;13.60;99.90;;;;;;5140943;27;19908;-62
2023/04/07 09:25:11;;;;;;;;;;;14.10;99.90;;;;;;5141310;27;19907;-62
2023/04/07 09:27:37;;;;;;;;;;;14.60;99.90;;;;;;5140538;27;19919;-62
2023/04/07 09:30:13;;;;;;;;;;;15.30;99.90;;;;;;5141210;27;20010;-62
2023/04/07 09:32:40;;;;;;;;;;;16.20;99.90;;;;;;5140575;27;19907;-62
2023/04/07 09:35:05;;;;;;;;;;;17.10;99.90;;;;;;5140399;27;19907;-62
2023/04/07 09:37:31;;;;;;;;;;;18.20;99.90;;;;;;5140861;27;20387;-62
2023/04/07 09:39:57;;;;;;;;;;;19.40;99.90;;;;;;5140726;27;20427;-62
2023/04/07 09:42:22;;;;;;;;;;;19.40;94.60;;;;;;5140743;27;19913;-62
2023/04/07 09:44:48;;;;;;;;;;;18.70;99.90;;;;;;5140759;27;19914;-62
2023/04/07 09:47:14;;;;;;;;;;;18.40;95.80;;;;;;5140931;27;19912;-62
2023/04/07 09:49:53;;;;;;;;;;;17.90;96.20;;;;;;5140631;27;19912;-62
2023/04/07 09:52:22;;;;;;;;;;;17.00;94.60;;;;;;5140487;27;19908;-62
2023/04/07 09:54:48;;;;;;;;;;;16.30;97.20;;;;;;5140516;27;19907;-62
2023/04/07 09:57:13;;;;;;;;;;;15.90;99.90;;;;;;5140833;27;20335;-62
2023/04/07 09:59:43;;;;;;;;;;;16.50;99.90;;;;;;5140292;27;19950;-62
2023/04/07 10:02:09;;;;;;;;;;;16.80;99.90;;;;;;5140186;27;19907;-61
2023/04/07 10:04:36;;;;;;;;;;;18.00;93.40;;;;;;5139387;27;19914;-62
2023/04/07 10:07:02;;;;;;;;;;;17.80;76.80;;;;;;5140145;27;20049;-62
2023/04/07 10:09:28;;;;;;;;;;;18.00;90.00;;;;;;5140290;27;19914;-62
2023/04/07 10:11:56;;;;;;;;;;;18.70;85.60;;;;;;5140789;27;19908;-62
2023/04/07 10:14:25;;;;;;;;;;;20.30;99.90;;;;;;5139946;27;20381;-62
2023/04/07 10:16:50;;;;;;;;;;;19.70;73.30;;;;;;5140217;27;19908;-62
2023/04/07 10:19:17;;;;;;;;;;;18.10;80.40;;;;;;5140118;27;19983;-62
2023/04/07 10:21:44;;;;;;;;;;;17.80;95.70;;;;;;5139768;27;19939;-62
2023/04/07 10:24:29;;;;;;;;;;;18.50;99.90;;;;;;5139974;27;19917;-62
2023/04/07 10:27:10;;;;;;;;;;;18.90;99.50;;;;;;5095954;27;19913;-61
2023/04/07 10:29:39;;;;;;;;;;;18.70;80.60;;;;;;5095270;28;20378;-61
2023/04/07 10:32:05;;;;;;;;;;;19.30;78.10;;;;;;5095337;28;19908;-62
2023/04/07 10:34:49;;;;;;;;;;;19.10;81.80;;;;;;5095365;28;19955;-62
2023/04/07 10:37:17;;;;;;;;;;;18.10;87.70;;;;;;5095463;28;19908;-62
2023/04/07 10:39:43;;;;;;;;;;;18.20;90.50;;;;;;5095280;28;19909;-61
2023/04/07 10:42:27;;;;;;;;;;;18.30;77.80;;;;;;5095344;28;19909;-61
2023/04/07 10:44:53;;;;;;;;;;;18.20;83.60;;;;;;5095202;28;19916;-62
2023/04/07 10:47:18;;;;;;;;;;;19.10;90.90;;;;;;5095363;28;19916;-61
2023/04/07 10:50:03;;;;;;;;;;;19.50;76.80;;;;;;5095011;28;20005;-62
2023/04/07 10:52:28;;;;;;;;;;;19.00;68.70;;;;;;5095239;28;19978;-62
2023/04/07 10:55:23;;;;;;;;;;;18.90;78.70;;;;;;5095152;28;19957;-62
2023/04/07 10:58:15;;;;;;;;;;;18.70;71.70;;;;;;5098541;28;20291;-62
2023/04/07 11:00:41;;;;;;;;;;;19.40;67.60;;;;;;5095491;28;20050;-62
2023/04/07 11:03:12;;;;;;;;;;;19.40;71.60;;;;;;5094962;28;19939;-62
2023/04/07 11:05:42;;;;;;;;;;;19.20;73.60;;;;;;5094578;28;20413;-62
2023/04/07 11:08:07;;;;;;;;;;;18.90;71.10;;;;;;5094586;28;20329;-62
2023/04/07 11:10:33;;;;;;;;;;;19.10;70.80;;;;;;5094690;28;19913;-62
2023/04/07 11:13:00;;;;;;;;;;;19.20;72.70;;;;;;5094605;28;19909;-61
2023/04/07 11:15:26;;;;;;;;;;;19.60;70.70;;;;;;5094742;28;19915;-62
2023/04/07 11:18:10;;;;;;;;;;;19.40;75.70;;;;;;5094385;28;19909;-62
2023/04/07 11:20:46;;;;;;;;;;;19.40;69.10;;;;;;5094566;28;19908;-62
2023/04/07 11:23:13;;;;;;;;;;;19.30;66.10;;;;;;5094663;28;20015;-62
2023/04/07 11:25:40;;;;;;;;;;;19.20;73.10;;;;;;5102848;28;19920;-62
2023/04/07 11:28:08;;;;;;;;;;;19.30;71.90;;;;;;5114567;28;19908;-62
2023/04/07 11:30:35;;;;;;;;;;;19.10;73.00;;;;;;5114576;28;19979;-62
2023/04/07 11:33:00;;;;;;;;;;;19.60;74.90;;;;;;5114577;28;19908;-62
2023/04/07 11:35:26;;;;;;;;;;;19.90;72.80;;;;;;5114450;28;19915;-62
2023/04/07 11:37:58;;;;;;;;;;;20.70;69.20;;;;;;5103748;28;20325;-62
2023/04/07 11:40:34;;;;;;;;;;;19.90;64.70;;;;;;5100807;28;19912;-62
2023/04/07 11:43:01;;;;;;;;;;;19.50;69.40;;;;;;5100929;28;19915;-62
2023/04/07 11:45:26;;;;;;;;;;;20.80;70.50;;;;;;5101024;28;19912;-62
2023/04/07 11:47:52;;;;;;;;;;;20.90;68.10;;;;;;5100553;28;19914;-62
2023/04/07 11:50:37;;;;;;;;;;;18.80;68.60;;;;;;5100814;28;19931;-62
2023/04/07 11:53:03;;;;;;;;;;;18.70;71.20;;;;;;5100402;28;19908;-62
2023/04/07 11:55:28;;;;;;;;;;;19.40;71.80;;;;;;5100471;28;20002;-62
2023/04/07 11:57:54;;;;;;;;;;;19.20;74.50;;;;;;5100745;28;19931;-62
2023/04/07 12:00:20;;;;;;;;;;;18.90;72.60;;;;;;5100609;28;19909;-62
2023/04/07 12:02:46;;;;;;;;;;;18.90;72.00;;;;;;5100503;28;19915;-62
2023/04/07 12:05:11;;;;;;;;;;;18.90;75.50;;;;;;5100198;28;19963;-62
2023/04/07 12:07:38;;;;;;;;;;;19.30;72.30;;;;;;5100437;28;19908;-62
2023/04/07 12:10:19;;;;;;;;;;;19.30;72.70;;;;;;5100377;28;19919;-62
2023/04/07 12:12:46;;;;;;;;;;;18.90;72.00;;;;;;5100148;28;19908;-62
2023/04/07 12:15:12;;;;;;;;;;;18.90;73.60;;;;;;5100172;28;19908;-62
2023/04/07 12:17:38;;;;;;;;;;;18.90;74.40;;;;;;5099904;28;19908;-62
2023/04/07 12:20:03;;;;;;;;;;;18.70;70.80;;;;;;5099964;28;19919;-62
2023/04/07 12:22:29;;;;;;;;;;;18.80;71.90;;;;;;5099868;28;20007;-62
2023/04/07 12:24:55;;;;;;;;;;;18.30;75.10;;;;;;5100021;28;19923;-62
2023/04/07 12:27:20;;;;;;;;;;;18.30;76.20;;;;;;5099498;28;19912;-62
2023/04/07 12:29:47;;;;;;;;;;;18.00;74.30;;;;;;5099772;28;19997;-61
2023/04/07 12:32:13;;;;;;;;;;;17.70;71.40;;;;;;5100031;28;19908;-62
2023/04/07 12:34:38;;;;;;;;;;;17.90;73.80;;;;;;5099635;28;19915;-62
2023/04/07 12:37:05;;;;;;;;;;;18.20;73.70;;;;;;5099762;28;20003;-61
2023/04/07 12:39:30;;;;;;;;;;;18.40;75.40;;;;;;5099509;28;19908;-62
2023/04/07 12:41:57;;;;;;;;;;;19.00;75.20;;;;;;5100047;28;19915;-62
2023/04/07 12:44:22;;;;;;;;;;;19.10;70.80;;;;;;5099718;28;19908;-62
2023/04/07 12:46:48;;;;;;;;;;;19.00;73.10;;;;;;5099458;28;19919;-62
2023/04/07 12:49:13;;;;;;;;;;;18.30;70.40;;;;;;5098466;28;20379;-62
2023/04/07 12:51:39;;;;;;;;;;;19.40;67.70;;;;;;5099841;28;20007;-62
2023/04/07 12:54:05;;;;;;;;;;;18.90;70.90;;;;;;5099340;28;19930;-62
2023/04/07 12:56:31;;;;;;;;;;;19.70;69.20;;;;;;5099649;28;19943;-62
2023/04/07 12:58:56;;;;;;;;;;;20.30;67.40;;;;;;5099514;28;19916;-62
2023/04/07 13:01:22;;;;;;;;;;;20.50;65.90;;;;;;5099386;28;19922;-62
2023/04/07 13:03:48;;;;;;;;;;;20.50;66.10;;;;;;5099302;28;20401;-61
2023/04/07 13:06:13;;;;;;;;;;;19.90;65.10;;;;;;5099243;28;19916;-61
2023/04/07 13:08:39;;;;;;;;;;;19.20;68.60;;;;;;5099462;28;19915;-62
2023/04/07 13:11:05;;;;;;;;;;;18.90;67.20;;;;;;5099230;28;19931;-62
2023/04/07 13:13:31;;;;;;;;;;;18.50;69.10;;;;;;5098949;28;19908;-62
2023/04/07 13:15:56;;;;;;;;;;;18.60;71.20;;;;;;5099296;28;19957;-62
2023/04/07 13:18:22;;;;;;;;;;;19.00;72.30;;;;;;5099182;28;20917;-62
2023/04/07 13:20:48;;;;;;;;;;;19.20;71.70;;;;;;5098811;28;20334;-60
2023/04/07 13:23:14;;;;;;;;;;;19.50;70.40;;;;;;5099045;28;19912;-60
2023/04/07 13:25:40;;;;;;;;;;;20.40;69.20;;;;;;5098523;28;19920;-60
2023/04/07 13:28:05;;;;;;;;;;;20.90;66.00;;;;;;5098695;28;20395;-60
2023/04/07 13:30:31;;;;;;;;;;;21.40;65.60;;;;;;5098950;28;19931;-60
2023/04/07 13:32:57;;;;;;;;;;;21.40;66.20;;;;;;5098636;28;19908;-60
2023/04/07 13:35:23;;;;;;;;;;;21.70;66.80;;;;;;5098563;28;20341;-60
2023/04/07 13:37:48;;;;;;;;;;;21.70;65.60;;;;;;5098768;28;20252;-60
2023/04/07 13:40:14;;;;;;;;;;;21.80;65.70;;;;;;5098733;28;19912;-60
2023/04/07 13:42:39;;;;;;;;;;;21.90;65.90;;;;;;5098604;28;19908;-60
2023/04/07 13:45:05;;;;;;;;;;;21.90;65.00;;;;;;5098337;28;19940;-60
2023/04/07 13:47:34;;;;;;;;;;;22.00;63.60;;;;;;5098587;28;20321;-60
2023/04/07 13:50:00;;;;;;;;;;;21.90;64.10;;;;;;5098351;28;20428;-60
2023/04/07 13:52:26;;;;;;;;;;;22.10;64.70;;;;;;5098701;28;19954;-60
2023/04/07 13:54:52;;;;;;;;;;;22.10;63.60;;;;;;5098539;28;20003;-60
2023/04/07 13:57:19;;;;;;;;;;;22.00;63.20;;;;;;5098507;28;19908;-60
2023/04/07 13:59:50;;;;;;;;;;;22.10;63.80;;;;;;5098204;28;19908;-60
2023/04/07 14:02:16;;;;;;;;;;;22.10;61.60;;;;;;5098031;28;20438;-60
2023/04/07 14:04:42;;;;;;;;;;;22.10;63.60;;;;;;5098009;28;19953;-60
2023/04/07 14:07:08;;;;;;;;;;;22.10;63.10;;;;;;5098258;28;19908;-60
2023/04/07 14:09:34;;;;;;;;;;;21.60;63.00;;;;;;5097775;28;20395;-60
2023/04/07 14:11:59;;;;;;;;;;;22.20;63.60;;;;;;5097728;28;20052;-60
2023/04/07 14:14:25;;;;;;;;;;;22.20;62.80;;;;;;5098131;28;20387;-60
2023/04/07 14:16:51;;;;;;;;;;;22.20;62.50;;;;;;5098258;28;19916;-60
2023/04/07 14:19:22;;;;;;;;;;;22.20;62.70;;;;;;5097930;28;19931;-60
2023/04/07 14:21:47;;;;;;;;;;;22.20;60.20;;;;;;5098034;28;19948;-60